INFORMACIÓN METAR y TAF
METAR FOR LEPP
ADDS - METARS form results

(2122 UTC 17 January 2020)
Data provider http://aviationweather.gov/metar/data/
 
METAR text: LEPP 172100Z 13003KT CAVOK 04/02 Q1032
Conditions at: LEPP (PAMPLONA/NOAIN , ES) observed 2100 UTC 17 January 2020
Temperature: 4.0°C (39°F)
Dewpoint: 2.0°C (36°F) [RH = 87%]
Pressure (altimeter): 30.47 inches Hg (1032.0 mb)
Winds: from the SE (130 degrees) at 3 MPH (3 knots; 1.5 m/s)
Visibility: 6 or more miles (10+ km)
Ceiling: ceiling and visibility are OK
Clouds: unknown
Weather: no significant weather observed at this time

METAR text: LEPP 172030Z 10003KT CAVOK 04/02 Q1032
Conditions at: LEPP (PAMPLONA/NOAIN , ES) observed 2030 UTC 17 January 2020
Temperature: 4.0°C (39°F)
Dewpoint: 2.0°C (36°F) [RH = 87%]
Pressure (altimeter): 30.47 inches Hg (1032.0 mb)
Winds: from the E (100 degrees) at 3 MPH (3 knots; 1.5 m/s)
Visibility: 6 or more miles (10+ km)
Ceiling: ceiling and visibility are OK
Clouds: unknown
Weather: no significant weather observed at this time

Forecast for: LEPP (PAMPLONA/NOAIN , ES)
Text: TAF LEPP 172000Z 1721/1821 VRB05KT CAVOK TX07/1814Z TNM00/1806Z
Forecast period: 2100 UTC 17 January 2020 to 2100 UTC 18 January 2020
Forecast type: FROM: standard forecast or significant change
Winds: variable direction winds at 6 MPH (5 knots; 2.6 m/s)
Visibility: 6 or more miles 10+ km)
Ceiling: unknown
Clouds: missing
Weather: no significant weather forecast for this period
Text: PROB30
Forecast period: 0000 to 0600 UTC 18 January 2020
Forecast type: TEMPORARY: The following changes expected for less than half the time period
Visibility: 0.50 miles (0.80 km)
Ceiling: indefinite ceiling with vertical visibility of 100 feet AGL
Clouds: obscured sky
Weather: FG  (fog)
Text: TEMPO 1800/1806 0800 FG VV001
Forecast period: 1200 to 2100 UTC 18 January 2020
Forecast type: TEMPORARY: The following changes expected for less than half the time period
Visibility: missing
Ceiling: at least 12,000 feet AGL
Clouds: scattered clouds at 3000 feet AGL
Weather: RA SHRA  (moderate rain, rain showers)

MAPA DE AEROPUERTO

INFORMACIÓN DE PISTA
Pista 15 Longitud 0 ft Ancho 0 ft
Elevación 1468 ft Umbral desplazado 0 ft Rumbo de pista 0
Pista 33 Longitud 0 ft Ancho 0 ft
Elevación 1500 ft Umbral desplazado 0 ft Rumbo de pista 0
Pista 16 Longitud 7241 ft Ancho 148 ft
Elevación 1468 ft Umbral desplazado 0 ft Rumbo de pista 152
Pista 34 Longitud 7241 ft Ancho 148 ft
Elevación 1504 ft Umbral desplazado 984 ft Rumbo de pista 332

FRECUANCIAS DEL AEROPUERTO
Tipo APP Nombre APP Frecuencia 118.2 MHZ
Tipo GND Nombre GND Frecuencia 121.7 MHZ
Tipo TWR Nombre TWR Frecuencia 118.2 MHZ

RADIO AYUDAS DEL AEROPUERTO
Tipo NDB Nombre Pamplona Frecuencia 422 KHZ
Tipo VOR-DME Nombre Pamplona Frecuencia 113550 KHZ
Tipo VOR-DME Nombre Pamplona Frecuencia 112300 KHZ